createdAt,value
2023-01-31T00:01:51.369Z,96951.30
2023-01-31T00:04:19.008Z,96948.91
2023-01-31T00:06:50.705Z,96941.97
2023-01-31T00:09:18.961Z,96940.39
2023-01-31T00:11:46.567Z,96939.61
2023-01-31T00:14:19.603Z,96937.45
2023-01-31T00:16:47.895Z,96934.55
2023-01-31T00:19:15.559Z,96937.74
2023-01-31T00:21:44.667Z,96929.74
2023-01-31T00:24:13.777Z,96932.95
2023-01-31T00:26:41.556Z,96925.77
2023-01-31T00:29:09.830Z,96930.55
2023-01-31T00:31:37.924Z,96931.07
2023-01-31T00:34:08.157Z,96935.61
2023-01-31T00:36:35.987Z,96934.53
2023-01-31T00:39:07.142Z,96935.34
2023-01-31T00:41:37.882Z,96931.89
2023-01-31T00:44:06.766Z,96926.30
2023-01-31T00:46:35.857Z,96920.69
2023-01-31T00:49:04.636Z,96915.92
2023-01-31T00:51:32.161Z,96918.84
2023-01-31T00:53:59.916Z,96917.76
2023-01-31T00:56:27.333Z,96917.77
2023-01-31T00:58:55.203Z,96923.36
2023-01-31T01:01:26.610Z,96923.59
2023-01-31T01:03:56.528Z,96921.48
2023-01-31T01:06:24.559Z,96924.40
2023-01-31T01:08:52.472Z,96923.34
2023-01-31T01:11:27.377Z,96920.44
2023-01-31T01:13:56.464Z,96925.48
2023-01-31T01:16:28.035Z,96925.75
2023-01-31T01:18:55.648Z,96922.02
2023-01-31T01:21:29.879Z,96925.23
2023-01-31T01:24:02.138Z,96927.08
2023-01-31T01:26:32.851Z,96928.95
2023-01-31T01:29:02.161Z,96925.73
2023-01-31T01:31:31.431Z,96922.30
2023-01-31T01:34:12.867Z,96929.48
2023-01-31T01:36:40.504Z,96929.74
2023-01-31T01:39:11.576Z,96928.12
2023-01-31T01:41:40.787Z,96923.59
2023-01-31T01:44:50.036Z,96928.92
2023-01-31T01:47:44.144Z,96929.16
2023-01-31T01:50:29.175Z,96923.30
2023-01-31T01:53:01.652Z,96932.38
2023-01-31T01:55:42.560Z,96935.54
2023-01-31T01:58:14.845Z,96937.15
2023-01-31T02:00:44.716Z,96929.70
2023-01-31T02:03:12.746Z,96937.41
2023-01-31T02:05:51.049Z,96929.70
2023-01-31T02:08:22.558Z,96925.97
2023-01-31T02:11:18.632Z,96928.09
2023-01-31T02:13:49.413Z,96927.84
2023-01-31T02:16:17.328Z,96932.88
2023-01-31T02:18:47.712Z,96932.34
2023-01-31T02:21:41.931Z,96923.28
2023-01-31T02:24:28.328Z,96936.87
2023-01-31T02:27:39.885Z,96919.58
2023-01-31T02:30:33.861Z,96915.30
2023-01-31T02:33:33.053Z,96923.30
2023-01-31T02:36:41.818Z,96925.97
2023-01-31T02:39:30.801Z,96928.88
2023-01-31T02:42:32.525Z,96933.67
2023-01-31T02:45:30.884Z,96937.92
2023-01-31T02:48:26.611Z,96933.14
2023-01-31T02:51:03.356Z,96936.31
2023-01-31T02:53:45.234Z,96936.31
2023-01-31T02:56:26.060Z,96943.27
2023-01-31T02:59:10.286Z,96949.91
2023-01-31T03:01:43.470Z,96951.25
2023-01-31T03:04:13.793Z,96945.37
2023-01-31T03:06:59.819Z,96943.25
2023-01-31T03:09:42.796Z,96944.58
2023-01-31T03:12:18.202Z,96943.53
2023-01-31T03:15:13.221Z,96952.59
2023-01-31T03:18:10.563Z,96947.01
2023-01-31T03:20:43.717Z,96949.66
2023-01-31T03:23:16.184Z,96952.33
2023-01-31T03:25:47.229Z,96951.00
2023-01-31T03:28:20.354Z,96952.58
2023-01-31T03:30:53.367Z,96955.25
2023-01-31T03:33:29.388Z,96960.03
2023-01-31T03:36:17.827Z,96962.18
2023-01-31T03:38:58.588Z,96965.38
2023-01-31T03:41:53.473Z,96955.25
2023-01-31T03:44:55.865Z,96952.61
2023-01-31T03:47:34.807Z,96953.11
2023-01-31T03:50:28.869Z,96955.50
2023-01-31T03:53:17.366Z,96948.84
2023-01-31T03:56:17.034Z,96947.27
2023-01-31T03:58:50.463Z,96940.08
2023-01-31T04:01:21.242Z,96944.87
2023-01-31T04:03:56.371Z,96939.80
2023-01-31T04:06:24.176Z,96940.84
2023-01-31T04:08:51.964Z,96942.70
2023-01-31T04:11:23.603Z,96951.74
2023-01-31T04:13:51.205Z,96949.37
2023-01-31T04:16:18.901Z,96962.94
2023-01-31T04:18:46.306Z,96975.72
2023-01-31T04:21:14.838Z,96971.44
2023-01-31T04:23:42.847Z,96968.27
2023-01-31T04:26:10.395Z,96975.70
2023-01-31T04:28:38.302Z,96975.16
2023-01-31T04:31:05.926Z,96965.84
2023-01-31T04:33:33.459Z,96968.50
2023-01-31T04:36:01.498Z,96975.17
2023-01-31T04:38:29.165Z,96971.20
2023-01-31T04:40:56.564Z,96975.98
2023-01-31T04:43:24.410Z,96991.16
2023-01-31T04:45:52.095Z,96993.58
2023-01-31T04:48:19.503Z,96994.34
2023-01-31T04:50:47.017Z,96992.73
2023-01-31T04:53:15.077Z,96997.81
2023-01-31T04:55:42.400Z,96997.53
2023-01-31T04:58:10.023Z,96993.27
2023-01-31T05:00:37.334Z,97001.00
2023-01-31T05:03:04.801Z,97001.80
2023-01-31T05:05:35.964Z,96994.34
2023-01-31T05:08:03.216Z,96994.62
2023-01-31T05:10:31.569Z,97002.33
2023-01-31T05:12:59.231Z,97004.17
2023-01-31T05:15:26.921Z,97001.00
2023-01-31T05:18:04.721Z,97005.51
2023-01-31T05:20:37.833Z,96998.34
2023-01-31T05:23:05.314Z,96991.94
2023-01-31T05:25:34.740Z,96991.95
2023-01-31T05:28:03.247Z,96989.56
2023-01-31T05:30:31.499Z,96982.11
2023-01-31T05:32:59.716Z,96974.65
2023-01-31T05:35:27.496Z,96987.45
2023-01-31T05:37:55.643Z,96981.58
2023-01-31T05:40:23.788Z,96993.30
2023-01-31T05:43:02.289Z,96991.97
2023-01-31T05:45:31.422Z,96991.72
2023-01-31T05:47:59.296Z,96997.03
2023-01-31T05:50:26.974Z,96988.25
2023-01-31T05:52:59.193Z,96989.60
2023-01-31T05:55:27.716Z,97010.08
2023-01-31T05:57:56.010Z,97020.20
2023-01-31T06:00:24.482Z,97024.20
2023-01-31T06:02:52.078Z,97036.98
2023-01-31T06:05:19.910Z,97041.21
2023-01-31T06:07:47.661Z,97038.02
2023-01-31T06:10:15.292Z,97040.94
2023-01-31T06:12:42.937Z,97038.56
2023-01-31T06:15:11.476Z,97042.82
2023-01-31T06:17:38.932Z,97049.73
2023-01-31T06:20:07.140Z,97050.53
2023-01-31T06:22:34.580Z,97051.34
2023-01-31T06:25:02.212Z,97046.02
2023-01-31T06:27:33.169Z,97049.20
2023-01-31T06:30:01.239Z,97056.67
2023-01-31T06:32:28.732Z,97051.59
2023-01-31T06:34:56.351Z,97061.44
2023-01-31T06:37:23.741Z,97060.91
2023-01-31T06:39:51.370Z,97064.63
2023-01-31T06:42:19.136Z,97067.84
2023-01-31T06:44:46.877Z,97064.10
2023-01-31T06:47:14.536Z,97080.59
2023-01-31T06:49:41.860Z,97078.75
2023-01-31T06:52:09.564Z,97073.42
2023-01-31T06:54:37.064Z,97072.35
2023-01-31T06:57:04.548Z,97078.47
2023-01-31T06:59:32.683Z,97077.94
2023-01-31T07:02:00.223Z,97083.27
2023-01-31T07:04:27.660Z,97091.53
2023-01-31T07:06:55.223Z,97090.75
2023-01-31T07:09:23.169Z,97090.47
2023-01-31T07:11:50.600Z,97088.61
2023-01-31T07:14:17.974Z,97091.53
2023-01-31T07:16:45.388Z,97093.14
2023-01-31T07:19:13.161Z,97101.14
2023-01-31T07:21:41.692Z,97103.79
2023-01-31T07:24:09.543Z,97107.78
2023-01-31T07:26:37.144Z,97103.55
2023-01-31T07:29:04.395Z,97115.25
2023-01-31T07:31:32.475Z,97120.03
2023-01-31T07:34:00.515Z,97118.72
2023-01-31T07:36:28.334Z,97117.12
2023-01-31T07:38:57.814Z,97113.11
2023-01-31T07:41:26.232Z,97115.23
2023-01-31T07:43:53.723Z,97130.70
2023-01-31T07:46:21.279Z,97138.94
2023-01-31T07:48:48.736Z,97146.12
2023-01-31T07:51:16.382Z,97140.28
2023-01-31T07:53:43.824Z,97141.61
